31.3°F
Current conditions from King Hill
Updated every 5 minutes
 
  Friday October 31, 2014

Station Historical Data
Daily Summary for January 7, 2011 Units:  Metric    English   Both
« Previous Day
Next Day »
Daily Weekly Monthly Yearly Custom
  High: Low: Average:
Temperature: -3 °C -12.3 °C -6.4 °C
Dew Point: -7.9 °C -14.3 °C -11.3 °C
Humidity: 86% 52% 69%
Wind Speed: 11.3km/h 0km/h 4.2km/h
Wind Gust: 29km/h - -
Wind- - SSE
Pressure: 1000.6 hPa 996.5 hPa -
Precipitation: 0 mm    
Historical Graphs
 
 
Tabular Data for January 7, 2011
Time Temperature Dew Point Pressure Wind Wind Speed Wind Gust Humidity Daily Rainfall
00:00 -11.9 °C -13.9 °C 1000.6 hPa Calm     85% 0 mm
00:04 -11.9 °C -14.1 °C 1000.6 hPa Calm     84% 0 mm
00:09 -12.1 °C -14.3 °C 1000.6 hPa Calm     84% 0 mm
00:15 -12.2 °C -14.2 °C 1000.6 hPa Calm     85% 0 mm
00:19 -12.3 °C -14.3 °C 1000.6 hPa Calm     85% 0 mm
00:24 -12.1 °C -14.1 °C 1000.6 hPa Calm     85% 0 mm
00:30 -11.9 °C -13.9 °C 1000.6 hPa Calm     85% 0 mm
00:35 -11.9 °C -13.9 °C 1000.6 hPa Calm     85% 0 mm
00:40 -11.9 °C -13.9 °C 1000.6 hPa Calm   1.6 km/h 85% 0 mm
00:44 -11.5 °C -13.4 °C 1000.2 hPa Calm   1.6 km/h 86% 0 mm
00:49 -11.3 °C -13.3 °C 1000.2 hPa Calm   3.2 km/h 85% 0 mm
00:55 -11.4 °C -13.6 °C 1000.2 hPa Calm   3.2 km/h 84% 0 mm
01:05 -11.6 °C -13.7 °C 1000.2 hPa Calm     84% 0 mm
01:09 -11.6 °C -13.7 °C 1000.2 hPa Calm     84% 0 mm
01:15 -11.7 °C -13.8 °C 1000.2 hPa Calm     84% 0 mm
01:19 -11.7 °C -13.9 °C 1000.2 hPa Calm     84% 0 mm
01:24 -11.7 °C -13.7 °C 1000.2 hPa Calm     85% 0 mm
01:30 -11.6 °C -13.6 °C 1000.2 hPa Calm   3.2 km/h 85% 0 mm
01:34 -11.5 °C -13.5 °C 1000.2 hPa Calm   3.2 km/h 85% 0 mm
01:39 -11.4 °C -13.4 °C 1000.2 hPa Calm   3.2 km/h 85% 0 mm
01:44 -11.3 °C -13.3 °C 1000.2 hPa Calm   3.2 km/h 85% 0 mm
01:49 -11 °C -13 °C 1000.2 hPa Calm   3.2 km/h 85% 0 mm
01:55 -10.6 °C -12.5 °C 1000.2 hPa Calm   3.2 km/h 86% 0 mm
01:59 -10.5 °C -12.7 °C 1000.2 hPa Calm   3.2 km/h 84% 0 mm
02:04 -10.7 °C -13 °C 1000.6 hPa Calm   1.6 km/h 83% 0 mm
02:10 -10.8 °C -13.1 °C 1000.6 hPa South 1.6 km/h 3.2 km/h 83% 0 mm
02:14 -10.4 °C -12.6 °C 1000.2 hPa SSE 1.6 km/h 3.2 km/h 84% 0 mm
02:20 -9.9 °C -12.2 °C 1000.6 hPa Calm   4.8 km/h 83% 0 mm
02:24 -9.7 °C -12.2 °C 1000.2 hPa Calm   4.8 km/h 82% 0 mm
02:30 -9.6 °C -12.2 °C 1000.2 hPa Calm   1.6 km/h 81% 0 mm
02:35 -9.6 °C -12.2 °C 1000.2 hPa Calm   3.2 km/h 81% 0 mm
02:39 -9.7 °C -12.4 °C 1000.2 hPa Calm   3.2 km/h 80% 0 mm
02:45 -10 °C -12.8 °C 1000.2 hPa Calm     80% 0 mm
02:49 -10.3 °C -13.1 °C 1000.2 hPa Calm     80% 0 mm
02:55 -10.6 °C -13.2 °C 1000.2 hPa Calm     81% 0 mm
03:04 -10.8 °C -13.2 °C 999.9 hPa Calm   1.6 km/h 82% 0 mm
03:09 -10.7 °C -13 °C 999.9 hPa Calm   3.2 km/h 83% 0 mm
03:14 -9.9 °C -12.4 °C 999.9 hPa East 1.6 km/h 4.8 km/h 82% 0 mm
03:20 -9.6 °C -12.3 °C 999.9 hPa East 1.6 km/h 4.8 km/h 80% 0 mm
03:24 -9.4 °C -12.3 °C 999.9 hPa Calm   3.2 km/h 79% 0 mm
03:30 -9.4 °C -12.5 °C 999.9 hPa Calm   3.2 km/h 78% 0 mm
03:34 -9.3 °C -12.6 °C 999.5 hPa Calm   3.2 km/h 77% 0 mm
03:40 -9 °C -12.4 °C 999.5 hPa Calm   3.2 km/h 76% 0 mm
03:44 -8.9 °C -12.6 °C 999.5 hPa Calm   3.2 km/h 75% 0 mm
03:49 -8.9 °C -12.6 °C 999.5 hPa Calm   1.6 km/h 75% 0 mm
03:55 -9.3 °C -13.2 °C 999.5 hPa Calm   1.6 km/h 73% 0 mm
03:59 -10 °C -13.8 °C 999.2 hPa Calm     74% 0 mm
04:05 -10.8 °C -14 °C 999.2 hPa Calm     77% 0 mm
04:09 -11.3 °C -14.2 °C 999.2 hPa Calm     79% 0 mm
04:14 -10.8 °C -13.4 °C 999.2 hPa Calm   3.2 km/h 81% 0 mm
04:19 -10 °C -12.8 °C 999.2 hPa Calm   3.2 km/h 80% 0 mm
04:24 -9.6 °C -12.8 °C 999.2 hPa East 3.2 km/h 4.8 km/h 77% 0 mm
04:29 -9.3 °C -12.9 °C 999.2 hPa Calm   4.8 km/h 75% 0 mm
04:34 -9.4 °C -13.2 °C 999.2 hPa East 1.6 km/h 4.8 km/h 74% 0 mm
04:39 -9.5 °C -13.3 °C 999.2 hPa Calm   3.2 km/h 74% 0 mm
04:44 -9.6 °C -13.4 °C 998.9 hPa Calm   3.2 km/h 74% 0 mm
04:49 -9.8 °C -13.4 °C 999.2 hPa Calm   1.6 km/h 75% 0 mm
04:55 -9.8 °C -13.4 °C 999.2 hPa Calm   1.6 km/h 75% 0 mm
04:59 -9.7 °C -13.2 °C 999.2 hPa Calm   1.6 km/h 76% 0 mm
05:04 -9.5 °C -12.9 °C 999.2 hPa Calm   1.6 km/h 76% 0 mm
05:09 -9.2 °C -12.8 °C 999.2 hPa Calm   3.2 km/h 75% 0 mm
05:14 -8.8 °C -12.7 °C 999.2 hPa SSW 1.6 km/h 6.4 km/h 73% 0 mm
05:19 -8.3 °C -12.7 °C 999.2 hPa SE 1.6 km/h 6.4 km/h 71% 0 mm
05:24 -8 °C -12.7 °C 999.2 hPa SSE 1.6 km/h 9.7 km/h 69% 0 mm
05:30 -7.7 °C -12.6 °C 999.2 hPa SSE 1.6 km/h 9.7 km/h 68% 0 mm
05:34 -7.7 °C -12.6 °C 999.2 hPa Calm   4.8 km/h 68% 0 mm
05:39 -7.7 °C -12.6 °C 999.2 hPa Calm   4.8 km/h 68% 0 mm
05:44 -7.6 °C -12.7 °C 999.2 hPa Calm   8 km/h 67% 0 mm
05:49 -7.5 °C -12.6 °C 999.2 hPa Calm   8 km/h 67% 0 mm
05:54 -7.5 °C -12.4 °C 998.9 hPa SE 1.6 km/h 8 km/h 68% 0 mm
05:59 -7.8 °C -12.5 °C 998.9 hPa Calm   8 km/h 69% 0 mm
06:04 -8.1 °C -12.7 °C 998.9 hPa Calm   3.2 km/h 69% 0 mm
06:09 -8.1 °C -12.8 °C 998.9 hPa Calm   3.2 km/h 69% 0 mm
06:14 -8 °C -12.9 °C 998.9 hPa ENE 1.6 km/h 4.8 km/h 68% 0 mm
06:19 -7.7 °C -12.7 °C 998.9 hPa SSE 3.2 km/h 6.4 km/h 67% 0 mm
06:24 -7.4 °C -12.7 °C 998.9 hPa Calm   6.4 km/h 66% 0 mm
06:30 -7.3 °C -12.6 °C 998.9 hPa SSE 1.6 km/h 6.4 km/h 66% 0 mm
06:35 -7.2 °C -12.7 °C 998.9 hPa SSE 3.2 km/h 8 km/h 65% 0 mm
06:39 -7.2 °C -12.6 °C 998.9 hPa Calm   8 km/h 65% 0 mm
06:44 -7.2 °C -12.6 °C 999.2 hPa SSE 3.2 km/h 6.4 km/h 65% 0 mm
06:49 -7.2 °C -12.6 °C 999.2 hPa Calm   6.4 km/h 65% 0 mm
06:55 -7.2 °C -12.6 °C 999.2 hPa SSE 1.6 km/h 4.8 km/h 65% 0 mm
06:59 -7.1 °C -12.6 °C 999.2 hPa SE 1.6 km/h 6.4 km/h 65% 0 mm
07:04 -7.1 °C -12.7 °C 999.2 hPa ESE 1.6 km/h 6.4 km/h 64% 0 mm
07:09 -7 °C -12.7 °C 999.2 hPa SE 1.6 km/h 8 km/h 64% 0 mm
07:14 -6.9 °C -12.6 °C 999.2 hPa Calm   12.9 km/h 64% 0 mm
07:19 -6.9 °C -12.8 °C 999.2 hPa ESE 1.6 km/h 12.9 km/h 63% 0 mm
07:24 -6.9 °C -12.8 °C 998.9 hPa SE 3.2 km/h 9.7 km/h 63% 0 mm
07:30 -6.8 °C -12.9 °C 998.9 hPa ESE 1.6 km/h 9.7 km/h 62% 0 mm
07:39 -6.9 °C -13 °C 998.9 hPa SE 1.6 km/h 8 km/h 62% 0 mm
07:44 -6.9 °C -12.9 °C 998.9 hPa South 3.2 km/h 16.1 km/h 62% 0 mm
07:49 -6.9 °C -12.9 °C 998.9 hPa SE 3.2 km/h 16.1 km/h 62% 0 mm
07:55 -6.8 °C -12.9 °C 998.9 hPa Calm   11.3 km/h 62% 0 mm
08:04 -6.8 °C -13.1 °C 998.9 hPa Calm   14.5 km/h 61% 0 mm
08:09 -6.8 °C -13.3 °C 998.5 hPa SSE 6.4 km/h 11.3 km/h 60% 0 mm
08:14 -6.7 °C -13.2 °C 998.9 hPa South 3.2 km/h 12.9 km/h 60% 0 mm
08:19 -6.7 °C -13.3 °C 998.5 hPa SSE 9.7 km/h 19.3 km/h 59% 0 mm
08:25 -6.6 °C -13.4 °C 998.5 hPa ESE 3.2 km/h 19.3 km/h 58% 0 mm
08:30 -6.6 °C -13.4 °C 998.9 hPa South 3.2 km/h 17.7 km/h 58% 0 mm
08:39 -6.4 °C -13.6 °C 998.9 hPa SSE 6.4 km/h 20.9 km/h 57% 0 mm
08:44 -6.3 °C -13.4 °C 998.9 hPa SSE 4.8 km/h 20.9 km/h 57% 0 mm
08:49 -6.2 °C -13.6 °C 998.9 hPa SSE 8 km/h 20.9 km/h 56% 0 mm
08:55 -6.2 °C -13.6 °C 998.9 hPa SSE 4.8 km/h 20.9 km/h 56% 0 mm
09:04 -6.2 °C -13.7 °C 998.9 hPa South 4.8 km/h 11.3 km/h 55% 0 mm
09:09 -6.1 °C -13.9 °C 998.9 hPa SSE 8 km/h 17.7 km/h 54% 0 mm
09:14 -6.1 °C -13.9 °C 998.9 hPa SSE 4.8 km/h 17.7 km/h 54% 0 mm
09:19 -6.1 °C -13.9 °C 998.9 hPa SSW 4.8 km/h 16.1 km/h 54% 0 mm
09:24 -5.9 °C -13.8 °C 998.9 hPa SSE 6.4 km/h 22.5 km/h 54% 0 mm
09:29 -5.9 °C -13.7 °C 998.9 hPa South 6.4 km/h 29 km/h 54% 0 mm
09:34 -5.8 °C -13.7 °C 998.9 hPa South 1.6 km/h 29 km/h 54% 0 mm
09:39 -5.8 °C -13.8 °C 998.9 hPa South 4.8 km/h 24.1 km/h 53% 0 mm
09:44 -5.8 °C -14.1 °C 998.9 hPa SSE 9.7 km/h 22.5 km/h 52% 0 mm
09:49 -5.7 °C -13.8 °C 998.9 hPa SSE 6.4 km/h 25.7 km/h 53% 0 mm
09:55 -5.7 °C -13.8 °C 998.9 hPa South 11.3 km/h 25.7 km/h 53% 0 mm
09:59 -5.7 °C -13.8 °C 998.9 hPa South 8 km/h 19.3 km/h 53% 0 mm
10:04 -5.7 °C -13.7 °C 998.9 hPa South 6.4 km/h 19.3 km/h 53% 0 mm
10:09 -5.6 °C -13.6 °C 998.9 hPa South 6.4 km/h 17.7 km/h 53% 0 mm
10:14 -5.5 °C -13.6 °C 998.9 hPa South 6.4 km/h 17.7 km/h 53% 0 mm
10:19 -5.5 °C -13.6 °C 998.9 hPa South 4.8 km/h 20.9 km/h 53% 0 mm
10:24 -5.5 °C -13.6 °C 998.5 hPa South 11.3 km/h 22.5 km/h 53% 0 mm
10:30 -5.6 °C -13.4 °C 998.5 hPa SSW 8 km/h 22.5 km/h 54% 0 mm
10:39 -5.4 °C -13.3 °C 998.5 hPa South 4.8 km/h 14.5 km/h 54% 0 mm
10:44 -5.4 °C -13.2 °C 998.2 hPa South 8 km/h 16.1 km/h 54% 0 mm
10:49 -5.3 °C -13.4 °C 998.2 hPa SSE 6.4 km/h 16.1 km/h 53% 0 mm
10:54 -5.3 °C -13.2 °C 998.2 hPa SSE 8 km/h 16.1 km/h 54% 0 mm
10:59 -5.3 °C -13.2 °C 998.2 hPa South 4.8 km/h 20.9 km/h 54% 0 mm
11:04 -5.3 °C -13.2 °C 997.9 hPa SSE 11.3 km/h 27.4 km/h 54% 0 mm
11:09 -5.4 °C -13 °C 998.2 hPa South 4.8 km/h 27.4 km/h 55% 0 mm
11:14 -5.3 °C -12.9 °C 998.2 hPa SSE 3.2 km/h 14.5 km/h 55% 0 mm
11:19 -5.3 °C -12.9 °C 997.9 hPa South 8 km/h 12.9 km/h 55% 0 mm
11:24 -5.3 °C -12.9 °C 997.9 hPa South 1.6 km/h 14.5 km/h 55% 0 mm
11:29 -5.2 °C -12.6 °C 997.9 hPa South 3.2 km/h 14.5 km/h 56% 0 mm
11:34 -5.1 °C -12.8 °C 997.9 hPa SSE 4.8 km/h 12.9 km/h 55% 0 mm
11:39 -5.1 °C -12.5 °C 997.9 hPa SE 6.4 km/h 11.3 km/h 56% 0 mm
11:44 -5 °C -12.4 °C 997.5 hPa SSE 4.8 km/h 17.7 km/h 56% 0 mm
11:49 -4.9 °C -12.6 °C 997.5 hPa SSE 4.8 km/h 17.7 km/h 55% 0 mm
11:55 -4.8 °C -12 °C 997.5 hPa Calm   16.1 km/h 57% 0 mm
11:59 -4.6 °C -12 °C 997.2 hPa SSE 3.2 km/h 17.7 km/h 56% 0 mm
12:04 -4.5 °C -11.9 °C 997.2 hPa SSE 1.6 km/h 17.7 km/h 56% 0 mm
12:09 -4.4 °C -10.8 °C 997.2 hPa SSE 4.8 km/h 12.9 km/h 61% 0 mm
12:14 -4.3 °C -11.6 °C 997.2 hPa SSW 4.8 km/h 12.9 km/h 57% 0 mm
12:19 -4.2 °C -11.5 °C 997.2 hPa Calm   11.3 km/h 57% 0 mm
12:24 -4.2 °C -11.4 °C 997.2 hPa South 8 km/h 17.7 km/h 57% 0 mm
12:29 -4.2 °C -11.2 °C 996.8 hPa South 9.7 km/h 17.7 km/h 58% 0 mm
12:34 -4.1 °C -11.1 °C 996.8 hPa South 6.4 km/h 16.1 km/h 58% 0 mm
12:39 -4.1 °C -11.2 °C 996.8 hPa South 6.4 km/h 17.7 km/h 58% 0 mm
12:44 -4.2 °C -11.1 °C 996.8 hPa South 4.8 km/h 17.7 km/h 59% 0 mm
12:49 -4.2 °C -11.2 °C 996.8 hPa South 6.4 km/h 16.1 km/h 58% 0 mm
12:55 -4.1 °C -11.2 °C 996.8 hPa SSW 4.8 km/h 14.5 km/h 58% 0 mm
12:59 -4.1 °C -10.9 °C 996.8 hPa South 3.2 km/h 14.5 km/h 59% 0 mm
13:04 -4 °C -11.1 °C 996.8 hPa South 9.7 km/h 22.5 km/h 58% 0 mm
13:09 -3.9 °C -10.9 °C 996.5 hPa South 6.4 km/h 22.5 km/h 58% 0 mm
13:14 -3.8 °C -10.7 °C 996.8 hPa SSW 8 km/h 19.3 km/h 59% 0 mm
13:19 -3.8 °C -10.7 °C 996.8 hPa SSE 4.8 km/h 20.9 km/h 59% 0 mm
13:24 -3.9 °C -10.7 °C 996.8 hPa SSE 9.7 km/h 20.9 km/h 59% 0 mm
13:29 -3.8 °C -10.4 °C 996.5 hPa South 3.2 km/h 20.9 km/h 60% 0 mm
13:34 -3.8 °C -10.4 °C 996.5 hPa South 4.8 km/h 14.5 km/h 60% 0 mm
13:39 -3.8 °C -10.4 °C 996.5 hPa South 9.7 km/h 17.7 km/h 60% 0 mm
13:44 -3.7 °C -10.3 °C 996.5 hPa South 1.6 km/h 17.7 km/h 60% 0 mm
13:49 -3.7 °C -10.5 °C 996.5 hPa South 4.8 km/h 14.5 km/h 59% 0 mm
13:54 -3.6 °C -10.7 °C 996.5 hPa South 9.7 km/h 16.1 km/h 58% 0 mm
13:59 -3.6 °C -10.4 °C 996.5 hPa SSE 3.2 km/h 16.1 km/h 59% 0 mm
14:04 -3.3 °C -10.4 °C 996.5 hPa SE 3.2 km/h 11.3 km/h 58% 0 mm
14:09 -3.2 °C -10.3 °C 996.5 hPa SSE 4.8 km/h 12.9 km/h 58% 0 mm
14:14 -3.2 °C -10.6 °C 996.5 hPa SSE 4.8 km/h 16.1 km/h 57% 0 mm
14:19 -3.2 °C -10.5 °C 996.5 hPa SSW 1.6 km/h 16.1 km/h 57% 0 mm
14:24 -3.1 °C -10.2 °C 996.5 hPa ESE 3.2 km/h 11.3 km/h 58% 0 mm
14:29 -3.2 °C -10.3 °C 996.5 hPa SSE 1.6 km/h 12.9 km/h 58% 0 mm
14:34 -3.2 °C -10.3 °C 996.5 hPa SSE 6.4 km/h 12.9 km/h 58% 0 mm
14:39 -3.3 °C -10.4 °C 996.5 hPa SSE 1.6 km/h 12.9 km/h 58% 0 mm
14:44 -3.3 °C -10.4 °C 996.8 hPa SSE 3.2 km/h 12.9 km/h 58% 0 mm
14:49 -3.1 °C -10.2 °C 996.5 hPa SE 1.6 km/h 9.7 km/h 58% 0 mm
14:55 -3 °C -10.1 °C 996.5 hPa South 3.2 km/h 11.3 km/h 58% 0 mm
14:59 -3.1 °C -10.2 °C 996.8 hPa SSE 1.6 km/h 11.3 km/h 58% 0 mm
15:04 -3.2 °C -10.3 °C 996.8 hPa SSE 6.4 km/h 14.5 km/h 58% 0 mm
15:09 -3.3 °C -10.2 °C 996.8 hPa Calm   14.5 km/h 59% 0 mm
15:14 -3.4 °C -10.3 °C 996.8 hPa South 3.2 km/h 8 km/h 59% 0 mm
15:19 -3.4 °C -10.3 °C 996.8 hPa South 1.6 km/h 8 km/h 59% 0 mm
15:24 -3.4 °C -10.3 °C 996.8 hPa South 3.2 km/h 9.7 km/h 59% 0 mm
15:30 -3.6 °C -10.4 °C 996.8 hPa SE 4.8 km/h 9.7 km/h 59% 0 mm
15:34 -3.8 °C -10.4 °C 996.8 hPa SE 4.8 km/h 16.1 km/h 60% 0 mm
15:39 -3.8 °C -10.4 °C 996.8 hPa SE 6.4 km/h 16.1 km/h 60% 0 mm
15:44 -3.9 °C -10.3 °C 996.8 hPa SSE 6.4 km/h 12.9 km/h 61% 0 mm
15:49 -3.9 °C -10.3 °C 996.8 hPa SSE 6.4 km/h 16.1 km/h 61% 0 mm
15:55 -4 °C -10.2 °C 996.8 hPa SE 3.2 km/h 16.1 km/h 62% 0 mm
15:59 -4.1 °C -10.3 °C 996.8 hPa Calm   11.3 km/h 62% 0 mm
16:04 -4.1 °C -10.3 °C 996.8 hPa SSE 4.8 km/h 12.9 km/h 62% 0 mm
16:09 -4.2 °C -10.2 °C 996.8 hPa SSE 1.6 km/h 12.9 km/h 63% 0 mm
16:14 -4.2 °C -10.2 °C 996.8 hPa South 3.2 km/h 11.3 km/h 63% 0 mm
16:19 -4.3 °C -10.1 °C 996.8 hPa Calm   11.3 km/h 64% 0 mm
16:25 -4.3 °C -10.1 °C 996.8 hPa South 3.2 km/h 12.9 km/h 64% 0 mm
16:30 -4.4 °C -10.2 °C 996.8 hPa South 1.6 km/h 14.5 km/h 64% 0 mm
16:34 -4.4 °C -10.1 °C 996.8 hPa SSE 1.6 km/h 14.5 km/h 65% 0 mm
16:39 -4.4 °C -10.1 °C 996.8 hPa SSE 1.6 km/h 11.3 km/h 65% 0 mm
16:44 -4.4 °C -10.1 °C 996.8 hPa South 3.2 km/h 11.3 km/h 65% 0 mm
16:49 -4.5 °C -9.9 °C 996.8 hPa South 1.6 km/h 11.3 km/h 66% 0 mm
16:54 -4.5 °C -9.9 °C 996.8 hPa SSE 1.6 km/h 11.3 km/h 66% 0 mm
16:59 -4.5 °C -9.9 °C 996.8 hPa SSE 3.2 km/h 11.3 km/h 66% 0 mm
17:04 -4.4 °C -9.8 °C 996.8 hPa Calm   8 km/h 66% 0 mm
17:09 -4.4 °C -9.8 °C 996.8 hPa SE 1.6 km/h 6.4 km/h 66% 0 mm
17:14 -4.4 °C -9.8 °C 996.8 hPa Calm   6.4 km/h 66% 0 mm
17:19 -4.4 °C -9.7 °C 996.8 hPa Calm   8 km/h 67% 0 mm
17:24 -4.4 °C -9.6 °C 996.8 hPa South 1.6 km/h 9.7 km/h 67% 0 mm
17:29 -4.4 °C -9.6 °C 996.8 hPa SSW 1.6 km/h 9.7 km/h 67% 0 mm
17:35 -4.4 °C -9.6 °C 997.2 hPa Calm   6.4 km/h 67% 0 mm
17:39 -4.4 °C -9.6 °C 997.2 hPa Calm   1.6 km/h 67% 0 mm
17:44 -4.4 °C -9.7 °C 997.2 hPa Calm   3.2 km/h 67% 0 mm
17:49 -4.4 °C -9.4 °C 997.2 hPa Calm   3.2 km/h 68% 0 mm
17:54 -4.4 °C -9.4 °C 997.2 hPa Calm     68% 0 mm
17:59 -4.6 °C -9.6 °C 997.2 hPa Calm     68% 0 mm
18:04 -4.6 °C -9.4 °C 997.2 hPa Calm     69% 0 mm
18:09 -4.7 °C -9.3 °C 997.2 hPa Calm     70% 0 mm
18:14 -4.7 °C -9.3 °C 997.2 hPa Calm     70% 0 mm
18:19 -4.8 °C -9.4 °C 997.2 hPa Calm     70% 0 mm
18:24 -4.8 °C -9.3 °C 997.2 hPa Calm     71% 0 mm
18:30 -4.9 °C -9.3 °C 997.2 hPa SSW 1.6 km/h 3.2 km/h 71% 0 mm
18:34 -4.8 °C -9.2 °C 997.2 hPa SW 1.6 km/h 6.4 km/h 71% 0 mm
18:39 -4.6 °C -9.1 °C 997.2 hPa SW 3.2 km/h 9.7 km/h 71% 0 mm
18:44 -4.6 °C -9 °C 997.2 hPa SW 1.6 km/h 9.7 km/h 71% 0 mm
18:49 -4.5 °C -8.9 °C 997.2 hPa SW 1.6 km/h 6.4 km/h 71% 0 mm
18:55 -4.5 °C -8.9 °C 997.2 hPa Calm   4.8 km/h 71% 0 mm
18:59 -4.5 °C -8.9 °C 997.2 hPa Calm   6.4 km/h 71% 0 mm
19:04 -4.5 °C -8.9 °C 997.2 hPa SSW 1.6 km/h 6.4 km/h 71% 0 mm
19:09 -4.5 °C -8.9 °C 997.2 hPa Calm   4.8 km/h 71% 0 mm
19:14 -4.6 °C -9 °C 997.2 hPa Calm   3.2 km/h 71% 0 mm
19:19 -4.6 °C -8.9 °C 997.2 hPa Calm     72% 0 mm
19:24 -4.7 °C -9.1 °C 997.2 hPa Calm     71% 0 mm
19:30 -4.7 °C -9 °C 997.2 hPa Calm     72% 0 mm
19:34 -4.7 °C -9 °C 997.2 hPa Calm   1.6 km/h 72% 0 mm
19:39 -4.7 °C -9 °C 997.2 hPa Calm   1.6 km/h 72% 0 mm
19:44 -4.8 °C -8.9 °C 997.2 hPa Calm   1.6 km/h 73% 0 mm
19:49 -4.8 °C -8.7 °C 997.5 hPa Calm   1.6 km/h 74% 0 mm
19:55 -4.8 °C -8.9 °C 997.2 hPa Calm   3.2 km/h 73% 0 mm
19:59 -4.8 °C -8.9 °C 997.2 hPa Calm   3.2 km/h 73% 0 mm
20:05 -4.9 °C -9 °C 997.2 hPa Calm     73% 0 mm
20:09 -4.9 °C -8.9 °C 997.2 hPa Calm     74% 0 mm
20:15 -5 °C -8.7 °C 997.2 hPa Calm     75% 0 mm
20:19 -5.1 °C -8.6 °C 997.2 hPa Calm     76% 0 mm
20:25 -5.1 °C -8.7 °C 997.5 hPa Calm     76% 0 mm
20:30 -5.2 °C -8.6 °C 997.5 hPa Calm     77% 0 mm
20:35 -5.2 °C -8.6 °C 997.5 hPa Calm     77% 0 mm
20:40 -5.3 °C -8.5 °C 997.5 hPa Calm     78% 0 mm
20:45 -5.3 °C -8.5 °C 997.5 hPa Calm     78% 0 mm
20:50 -5.3 °C -8.4 °C 997.5 hPa Calm     79% 0 mm
20:55 -5.3 °C -8.2 °C 997.5 hPa Calm     80% 0 mm
21:00 -5.4 °C -8.3 °C 997.5 hPa Calm     80% 0 mm
21:05 -5.4 °C -8.2 °C 997.5 hPa Calm     81% 0 mm
21:10 -5.5 °C -8.2 °C 997.5 hPa Calm   1.6 km/h 81% 0 mm
21:15 -5.6 °C -8.3 °C 997.5 hPa Calm   3.2 km/h 81% 0 mm
21:20 -5.7 °C -8.2 °C 997.5 hPa Calm   3.2 km/h 82% 0 mm
21:25 -5.7 °C -8.3 °C 997.5 hPa Calm   3.2 km/h 82% 0 mm
21:30 -5.8 °C -8.3 °C 997.5 hPa Calm   3.2 km/h 82% 0 mm
21:35 -5.8 °C -8.3 °C 997.5 hPa Calm   3.2 km/h 83% 0 mm
21:40 -5.8 °C -8.3 °C 997.5 hPa Calm   1.6 km/h 83% 0 mm
21:45 -5.9 °C -8.4 °C 997.5 hPa Calm   1.6 km/h 83% 0 mm
21:50 -6.1 °C -8.5 °C 997.5 hPa Calm   1.6 km/h 83% 0 mm
21:55 -6.2 °C -8.6 °C 997.5 hPa Calm   1.6 km/h 83% 0 mm
22:00 -6.3 °C -8.6 °C 997.9 hPa Calm   1.6 km/h 84% 0 mm
22:05 -6.2 °C -8.5 °C 997.5 hPa Calm   1.6 km/h 84% 0 mm
22:10 -6.2 °C -8.5 °C 997.9 hPa Calm   1.6 km/h 84% 0 mm
22:15 -6.3 °C -8.6 °C 997.9 hPa Calm     84% 0 mm
22:20 -6.2 °C -8.3 °C 997.9 hPa Calm     85% 0 mm
22:25 -6.2 °C -8.3 °C 997.9 hPa Calm   1.6 km/h 85% 0 mm
22:30 -6.1 °C -8.2 °C 997.9 hPa East 1.6 km/h 3.2 km/h 85% 0 mm
22:35 -6 °C -7.9 °C 997.9 hPa Calm   3.2 km/h 86% 0 mm
22:40 -6 °C -7.9 °C 997.9 hPa East 1.6 km/h 3.2 km/h 86% 0 mm
22:45 -6 °C -7.9 °C 997.9 hPa Calm   3.2 km/h 86% 0 mm
22:50 -6.1 °C -8 °C 997.9 hPa Calm   1.6 km/h 86% 0 mm
22:55 -6.1 °C -8.1 °C 997.9 hPa Calm   1.6 km/h 86% 0 mm
23:05 -6.2 °C -8.1 °C 997.5 hPa ENE 1.6 km/h 3.2 km/h 86% 0 mm
23:10 -6.2 °C -8.2 °C 997.9 hPa ENE 1.6 km/h 3.2 km/h 86% 0 mm
23:15 -6.2 °C -8.2 °C 997.9 hPa ENE 1.6 km/h 3.2 km/h 86% 0 mm
23:20 -6.3 °C -8.2 °C 997.9 hPa Calm   3.2 km/h 86% 0 mm
23:25 -6.3 °C -8.3 °C 997.9 hPa ENE 1.6 km/h 4.8 km/h 86% 0 mm
23:30 -6.4 °C -8.4 °C 997.5 hPa Calm   4.8 km/h 86% 0 mm
23:35 -6.5 °C -8.4 °C 997.5 hPa Calm   3.2 km/h 86% 0 mm
23:40 -6.6 °C -8.6 °C 997.5 hPa Calm   6.4 km/h 86% 0 mm
23:45 -6.7 °C -8.7 °C 997.5 hPa ENE 1.6 km/h 6.4 km/h 86% 0 mm
23:50 -6.8 °C -8.8 °C 997.5 hPa ENE 1.6 km/h 4.8 km/h 86% 0 mm
23:55 -6.8 °C -8.8 °C 997.5 hPa ENE 1.6 km/h 4.8 km/h 86% 0 mm
Westford Weather
Compliments of Weather Underground

 
 
Current Radar Loop:

Copyright © WestfordWeather.net 2007-2014. All rights reserved.